sensor_id;sensor_type;location;lat;lon;timestamp;temperature;humidity
10278;DHT22;5184;51.376;7.148;2024-03-06T00:01:48;2.90;99.90
10278;DHT22;5184;51.376;7.148;2024-03-06T00:04:14;3.00;99.90
10278;DHT22;5184;51.376;7.148;2024-03-06T00:06:41;2.90;99.90
10278;DHT22;5184;51.376;7.148;2024-03-06T00:09:07;2.90;99.90
10278;DHT22;5184;51.376;7.148;2024-03-06T00:11:34;2.80;99.90
10278;DHT22;5184;51.376;7.148;2024-03-06T00:14:03;2.70;99.90
10278;DHT22;5184;51.376;7.148;2024-03-06T00:16:30;2.70;99.90
10278;DHT22;5184;51.376;7.148;2024-03-06T00:18:56;2.60;99.90
10278;DHT22;5184;51.376;7.148;2024-03-06T00:21:24;2.50;99.90
10278;DHT22;5184;51.376;7.148;2024-03-06T00:23:51;2.50;99.90
10278;DHT22;5184;51.376;7.148;2024-03-06T00:26:17;2.50;99.90
10278;DHT22;5184;51.376;7.148;2024-03-06T00:28:44;2.50;99.90
10278;DHT22;5184;51.376;7.148;2024-03-06T00:31:11;2.50;99.90
10278;DHT22;5184;51.376;7.148;2024-03-06T00:33:37;2.50;99.90
10278;DHT22;5184;51.376;7.148;2024-03-06T00:36:04;2.40;99.90
10278;DHT22;5184;51.376;7.148;2024-03-06T00:38:31;2.70;99.90
10278;DHT22;5184;51.376;7.148;2024-03-06T00:40:57;2.40;99.90
10278;DHT22;5184;51.376;7.148;2024-03-06T00:43:24;2.40;99.90
10278;DHT22;5184;51.376;7.148;2024-03-06T00:45:51;2.40;99.90
10278;DHT22;5184;51.376;7.148;2024-03-06T00:48:18;2.40;99.90
10278;DHT22;5184;51.376;7.148;2024-03-06T00:50:47;2.40;99.90
10278;DHT22;5184;51.376;7.148;2024-03-06T00:53:14;2.40;99.90
10278;DHT22;5184;51.376;7.148;2024-03-06T00:55:40;2.40;99.90
10278;DHT22;5184;51.376;7.148;2024-03-06T00:58:07;2.30;99.90
10278;DHT22;5184;51.376;7.148;2024-03-06T01:00:34;2.40;99.90
10278;DHT22;5184;51.376;7.148;2024-03-06T01:03:00;2.30;99.90
10278;DHT22;5184;51.376;7.148;2024-03-06T01:05:27;2.30;99.90
10278;DHT22;5184;51.376;7.148;2024-03-06T01:07:54;2.40;99.90
10278;DHT22;5184;51.376;7.148;2024-03-06T01:10:21;2.30;99.90
10278;DHT22;5184;51.376;7.148;2024-03-06T01:12:48;2.30;99.90
10278;DHT22;5184;51.376;7.148;2024-03-06T01:15:16;2.30;99.90
10278;DHT22;5184;51.376;7.148;2024-03-06T01:17:42;2.30;99.90
10278;DHT22;5184;51.376;7.148;2024-03-06T01:20:09;2.30;99.90
10278;DHT22;5184;51.376;7.148;2024-03-06T01:22:36;2.30;99.90
10278;DHT22;5184;51.376;7.148;2024-03-06T01:25:03;2.30;99.90
10278;DHT22;5184;51.376;7.148;2024-03-06T01:27:29;2.20;99.90
10278;DHT22;5184;51.376;7.148;2024-03-06T01:29:57;2.20;99.90
10278;DHT22;5184;51.376;7.148;2024-03-06T01:32:24;2.40;99.90
10278;DHT22;5184;51.376;7.148;2024-03-06T01:34:51;2.30;99.90
10278;DHT22;5184;51.376;7.148;2024-03-06T01:37:17;2.40;99.90
10278;DHT22;5184;51.376;7.148;2024-03-06T01:39:44;2.50;99.90
10278;DHT22;5184;51.376;7.148;2024-03-06T01:42:11;2.60;99.90
10278;DHT22;5184;51.376;7.148;2024-03-06T01:44:39;2.60;99.90
10278;DHT22;5184;51.376;7.148;2024-03-06T01:47:06;2.60;99.90
10278;DHT22;5184;51.376;7.148;2024-03-06T01:49:33;2.60;99.90
10278;DHT22;5184;51.376;7.148;2024-03-06T01:51:59;2.60;99.90
10278;DHT22;5184;51.376;7.148;2024-03-06T01:54:26;2.50;99.90
10278;DHT22;5184;51.376;7.148;2024-03-06T01:56:52;2.40;99.90
10278;DHT22;5184;51.376;7.148;2024-03-06T01:59:20;2.40;99.90
10278;DHT22;5184;51.376;7.148;2024-03-06T02:01:47;2.50;99.90
10278;DHT22;5184;51.376;7.148;2024-03-06T02:04:14;2.40;99.90
10278;DHT22;5184;51.376;7.148;2024-03-06T02:06:42;2.50;99.90
10278;DHT22;5184;51.376;7.148;2024-03-06T02:09:09;2.50;99.90
10278;DHT22;5184;51.376;7.148;2024-03-06T02:11:37;2.50;99.90
10278;DHT22;5184;51.376;7.148;2024-03-06T02:14:04;2.50;99.90
10278;DHT22;5184;51.376;7.148;2024-03-06T02:16:31;2.40;99.90
10278;DHT22;5184;51.376;7.148;2024-03-06T02:18:58;2.50;99.90
10278;DHT22;5184;51.376;7.148;2024-03-06T02:21:26;2.60;99.90
10278;DHT22;5184;51.376;7.148;2024-03-06T02:23:52;2.50;99.90
10278;DHT22;5184;51.376;7.148;2024-03-06T02:26:19;2.50;99.90
10278;DHT22;5184;51.376;7.148;2024-03-06T02:28:48;2.50;99.90
10278;DHT22;5184;51.376;7.148;2024-03-06T02:31:15;2.50;99.90
10278;DHT22;5184;51.376;7.148;2024-03-06T02:33:43;2.50;99.90
10278;DHT22;5184;51.376;7.148;2024-03-06T02:36:09;2.50;99.90
10278;DHT22;5184;51.376;7.148;2024-03-06T02:38:35;2.50;99.90
10278;DHT22;5184;51.376;7.148;2024-03-06T02:41:02;2.60;99.90
10278;DHT22;5184;51.376;7.148;2024-03-06T02:43:28;2.60;99.90
10278;DHT22;5184;51.376;7.148;2024-03-06T02:45:56;2.60;99.90
10278;DHT22;5184;51.376;7.148;2024-03-06T02:48:23;2.50;99.90
10278;DHT22;5184;51.376;7.148;2024-03-06T02:50:50;2.50;99.90
10278;DHT22;5184;51.376;7.148;2024-03-06T02:53:17;2.50;99.90
10278;DHT22;5184;51.376;7.148;2024-03-06T02:55:44;2.50;99.90
10278;DHT22;5184;51.376;7.148;2024-03-06T02:58:10;2.50;99.90
10278;DHT22;5184;51.376;7.148;2024-03-06T03:00:40;2.30;99.90
10278;DHT22;5184;51.376;7.148;2024-03-06T03:03:07;2.40;99.90
10278;DHT22;5184;51.376;7.148;2024-03-06T03:05:34;2.30;99.90
10278;DHT22;5184;51.376;7.148;2024-03-06T03:08:00;2.30;99.90
10278;DHT22;5184;51.376;7.148;2024-03-06T03:10:27;2.30;99.90
10278;DHT22;5184;51.376;7.148;2024-03-06T03:12:54;2.00;99.90
10278;DHT22;5184;51.376;7.148;2024-03-06T03:15:21;2.30;99.90
10278;DHT22;5184;51.376;7.148;2024-03-06T03:17:48;2.30;99.90
10278;DHT22;5184;51.376;7.148;2024-03-06T03:20:16;2.30;99.90
10278;DHT22;5184;51.376;7.148;2024-03-06T03:22:42;2.30;99.90
10278;DHT22;5184;51.376;7.148;2024-03-06T03:25:10;2.30;99.90
10278;DHT22;5184;51.376;7.148;2024-03-06T03:27:37;2.40;99.90
10278;DHT22;5184;51.376;7.148;2024-03-06T03:30:03;2.40;99.90
10278;DHT22;5184;51.376;7.148;2024-03-06T03:32:30;2.40;99.90
10278;DHT22;5184;51.376;7.148;2024-03-06T03:34:56;2.40;99.90
10278;DHT22;5184;51.376;7.148;2024-03-06T03:37:23;2.50;99.90
10278;DHT22;5184;51.376;7.148;2024-03-06T03:39:50;2.40;99.90
10278;DHT22;5184;51.376;7.148;2024-03-06T03:42:17;2.50;99.90
10278;DHT22;5184;51.376;7.148;2024-03-06T03:44:43;2.50;99.90
10278;DHT22;5184;51.376;7.148;2024-03-06T03:47:10;2.50;99.90
10278;DHT22;5184;51.376;7.148;2024-03-06T03:49:37;2.60;99.90
10278;DHT22;5184;51.376;7.148;2024-03-06T03:52:03;2.60;99.90
10278;DHT22;5184;51.376;7.148;2024-03-06T03:54:30;2.70;99.90
10278;DHT22;5184;51.376;7.148;2024-03-06T03:56:57;2.70;99.90
10278;DHT22;5184;51.376;7.148;2024-03-06T03:59:25;2.80;99.90
10278;DHT22;5184;51.376;7.148;2024-03-06T04:01:51;2.70;99.90
10278;DHT22;5184;51.376;7.148;2024-03-06T04:04:18;2.80;99.90
10278;DHT22;5184;51.376;7.148;2024-03-06T04:06:44;2.80;99.90
10278;DHT22;5184;51.376;7.148;2024-03-06T04:09:12;2.90;99.90
10278;DHT22;5184;51.376;7.148;2024-03-06T04:11:39;3.00;99.90
10278;DHT22;5184;51.376;7.148;2024-03-06T04:14:07;3.00;99.90
10278;DHT22;5184;51.376;7.148;2024-03-06T04:16:34;3.00;99.90
10278;DHT22;5184;51.376;7.148;2024-03-06T04:19:00;3.00;99.90
10278;DHT22;5184;51.376;7.148;2024-03-06T04:21:27;3.10;99.90
10278;DHT22;5184;51.376;7.148;2024-03-06T04:23:54;3.10;99.90
10278;DHT22;5184;51.376;7.148;2024-03-06T04:26:21;3.10;99.90
10278;DHT22;5184;51.376;7.148;2024-03-06T04:28:48;3.10;99.90
10278;DHT22;5184;51.376;7.148;2024-03-06T04:31:16;3.10;99.90
10278;DHT22;5184;51.376;7.148;2024-03-06T04:33:42;3.00;99.90
10278;DHT22;5184;51.376;7.148;2024-03-06T04:36:09;3.00;99.90
10278;DHT22;5184;51.376;7.148;2024-03-06T04:38:36;3.00;99.90
10278;DHT22;5184;51.376;7.148;2024-03-06T04:41:05;3.00;99.90
10278;DHT22;5184;51.376;7.148;2024-03-06T04:43:30;3.00;99.90
10278;DHT22;5184;51.376;7.148;2024-03-06T04:45:56;3.00;99.90
10278;DHT22;5184;51.376;7.148;2024-03-06T04:48:24;3.10;99.90
10278;DHT22;5184;51.376;7.148;2024-03-06T04:50:51;3.10;99.90
10278;DHT22;5184;51.376;7.148;2024-03-06T04:53:18;3.20;99.90
10278;DHT22;5184;51.376;7.148;2024-03-06T04:55:46;3.20;99.90
10278;DHT22;5184;51.376;7.148;2024-03-06T04:58:12;3.20;99.90
10278;DHT22;5184;51.376;7.148;2024-03-06T05:00:39;3.10;99.90
10278;DHT22;5184;51.376;7.148;2024-03-06T05:03:06;3.10;99.90
10278;DHT22;5184;51.376;7.148;2024-03-06T05:05:33;3.10;99.90
10278;DHT22;5184;51.376;7.148;2024-03-06T05:07:59;3.10;99.90
10278;DHT22;5184;51.376;7.148;2024-03-06T05:10:26;2.90;99.90
10278;DHT22;5184;51.376;7.148;2024-03-06T05:12:52;2.80;99.90
10278;DHT22;5184;51.376;7.148;2024-03-06T05:15:20;2.70;99.90
10278;DHT22;5184;51.376;7.148;2024-03-06T05:17:46;2.70;99.90
10278;DHT22;5184;51.376;7.148;2024-03-06T05:20:14;2.70;99.90
10278;DHT22;5184;51.376;7.148;2024-03-06T05:22:40;2.70;99.90
10278;DHT22;5184;51.376;7.148;2024-03-06T05:25:08;2.60;99.90
10278;DHT22;5184;51.376;7.148;2024-03-06T05:27:36;2.60;99.90
10278;DHT22;5184;51.376;7.148;2024-03-06T05:30:04;2.60;99.90
10278;DHT22;5184;51.376;7.148;2024-03-06T05:32:31;2.60;99.90
10278;DHT22;5184;51.376;7.148;2024-03-06T05:34:58;2.60;99.90
10278;DHT22;5184;51.376;7.148;2024-03-06T05:37:26;2.60;99.90
10278;DHT22;5184;51.376;7.148;2024-03-06T05:39:52;2.60;99.90
10278;DHT22;5184;51.376;7.148;2024-03-06T05:42:19;2.60;99.90
10278;DHT22;5184;51.376;7.148;2024-03-06T05:44:46;2.60;99.90
10278;DHT22;5184;51.376;7.148;2024-03-06T05:47:13;2.60;99.90
10278;DHT22;5184;51.376;7.148;2024-03-06T05:49:40;2.50;99.90
10278;DHT22;5184;51.376;7.148;2024-03-06T05:52:07;2.50;99.90
10278;DHT22;5184;51.376;7.148;2024-03-06T05:54:34;2.50;99.90
10278;DHT22;5184;51.376;7.148;2024-03-06T05:57:02;2.90;99.90
10278;DHT22;5184;51.376;7.148;2024-03-06T05:59:28;2.40;99.90
10278;DHT22;5184;51.376;7.148;2024-03-06T06:01:55;2.40;99.90
10278;DHT22;5184;51.376;7.148;2024-03-06T06:04:21;2.50;99.90
10278;DHT22;5184;51.376;7.148;2024-03-06T06:06:48;2.50;99.90
10278;DHT22;5184;51.376;7.148;2024-03-06T06:09:15;2.40;99.90
10278;DHT22;5184;51.376;7.148;2024-03-06T06:11:44;2.40;99.90
10278;DHT22;5184;51.376;7.148;2024-03-06T06:14:10;2.40;99.90
10278;DHT22;5184;51.376;7.148;2024-03-06T06:16:37;2.40;99.90
10278;DHT22;5184;51.376;7.148;2024-03-06T06:19:04;2.40;99.90
10278;DHT22;5184;51.376;7.148;2024-03-06T06:21:32;2.30;99.90
10278;DHT22;5184;51.376;7.148;2024-03-06T06:23:59;2.30;99.90
10278;DHT22;5184;51.376;7.148;2024-03-06T06:26:26;2.40;99.90
10278;DHT22;5184;51.376;7.148;2024-03-06T06:28:52;2.40;99.90
10278;DHT22;5184;51.376;7.148;2024-03-06T06:31:19;2.40;99.90
10278;DHT22;5184;51.376;7.148;2024-03-06T06:33:45;2.50;99.90
10278;DHT22;5184;51.376;7.148;2024-03-06T06:36:12;2.60;99.90
10278;DHT22;5184;51.376;7.148;2024-03-06T06:38:39;2.60;99.90
10278;DHT22;5184;51.376;7.148;2024-03-06T06:41:05;2.70;99.90
10278;DHT22;5184;51.376;7.148;2024-03-06T06:43:32;2.70;99.90
10278;DHT22;5184;51.376;7.148;2024-03-06T06:45:58;2.80;99.90
10278;DHT22;5184;51.376;7.148;2024-03-06T06:48:26;3.00;99.90
10278;DHT22;5184;51.376;7.148;2024-03-06T06:50:52;3.00;99.90
10278;DHT22;5184;51.376;7.148;2024-03-06T06:53:19;3.10;99.90
10278;DHT22;5184;51.376;7.148;2024-03-06T06:55:46;3.20;99.90
10278;DHT22;5184;51.376;7.148;2024-03-06T06:58:13;3.30;99.90
10278;DHT22;5184;51.376;7.148;2024-03-06T07:00:40;3.40;99.90
10278;DHT22;5184;51.376;7.148;2024-03-06T07:03:07;3.40;99.90
10278;DHT22;5184;51.376;7.148;2024-03-06T07:05:34;3.40;99.90
10278;DHT22;5184;51.376;7.148;2024-03-06T07:08:00;3.50;99.90
10278;DHT22;5184;51.376;7.148;2024-03-06T07:10:27;3.50;99.90
10278;DHT22;5184;51.376;7.148;2024-03-06T07:12:54;3.60;99.90
10278;DHT22;5184;51.376;7.148;2024-03-06T07:15:21;3.90;99.90
10278;DHT22;5184;51.376;7.148;2024-03-06T07:17:48;3.80;99.90
10278;DHT22;5184;51.376;7.148;2024-03-06T07:20:16;3.80;99.90
10278;DHT22;5184;51.376;7.148;2024-03-06T07:22:42;3.80;99.90
10278;DHT22;5184;51.376;7.148;2024-03-06T07:25:09;3.90;99.90
10278;DHT22;5184;51.376;7.148;2024-03-06T07:27:35;3.50;99.90
10278;DHT22;5184;51.376;7.148;2024-03-06T07:30:03;4.00;99.90
10278;DHT22;5184;51.376;7.148;2024-03-06T07:32:31;4.00;99.90
10278;DHT22;5184;51.376;7.148;2024-03-06T07:34:57;4.00;99.90
10278;DHT22;5184;51.376;7.148;2024-03-06T07:37:24;4.00;99.90
10278;DHT22;5184;51.376;7.148;2024-03-06T07:39:50;4.00;99.90
10278;DHT22;5184;51.376;7.148;2024-03-06T07:42:17;4.10;99.90
10278;DHT22;5184;51.376;7.148;2024-03-06T07:44:44;4.10;99.90
10278;DHT22;5184;51.376;7.148;2024-03-06T07:47:11;4.00;99.90
10278;DHT22;5184;51.376;7.148;2024-03-06T07:49:38;4.00;99.90
10278;DHT22;5184;51.376;7.148;2024-03-06T07:52:06;4.00;99.90
10278;DHT22;5184;51.376;7.148;2024-03-06T07:54:33;4.10;99.90
10278;DHT22;5184;51.376;7.148;2024-03-06T07:57:00;4.00;99.90
10278;DHT22;5184;51.376;7.148;2024-03-06T07:59:26;4.10;99.90
10278;DHT22;5184;51.376;7.148;2024-03-06T08:01:53;4.10;99.90
10278;DHT22;5184;51.376;7.148;2024-03-06T08:04:20;4.20;99.90
10278;DHT22;5184;51.376;7.148;2024-03-06T08:06:48;4.30;99.90
10278;DHT22;5184;51.376;7.148;2024-03-06T08:09:14;4.30;99.90
10278;DHT22;5184;51.376;7.148;2024-03-06T08:11:42;4.50;99.90
10278;DHT22;5184;51.376;7.148;2024-03-06T08:14:10;4.50;99.90
10278;DHT22;5184;51.376;7.148;2024-03-06T08:19:03;4.60;99.90
10278;DHT22;5184;51.376;7.148;2024-03-06T08:21:30;4.70;99.90
10278;DHT22;5184;51.376;7.148;2024-03-06T08:23:57;4.70;99.90
10278;DHT22;5184;51.376;7.148;2024-03-06T08:26:23;4.80;99.90
10278;DHT22;5184;51.376;7.148;2024-03-06T08:28:50;4.90;99.90
10278;DHT22;5184;51.376;7.148;2024-03-06T08:31:17;5.00;99.90
10278;DHT22;5184;51.376;7.148;2024-03-06T08:33:44;5.00;99.90
10278;DHT22;5184;51.376;7.148;2024-03-06T08:36:11;5.10;99.90
10278;DHT22;5184;51.376;7.148;2024-03-06T08:38:37;5.20;99.90
10278;DHT22;5184;51.376;7.148;2024-03-06T08:41:05;5.40;99.90
10278;DHT22;5184;51.376;7.148;2024-03-06T08:43:32;5.50;99.90
10278;DHT22;5184;51.376;7.148;2024-03-06T08:45:59;5.60;99.90
10278;DHT22;5184;51.376;7.148;2024-03-06T08:48:26;5.60;99.90
10278;DHT22;5184;51.376;7.148;2024-03-06T08:50:53;5.70;99.90
10278;DHT22;5184;51.376;7.148;2024-03-06T08:53:19;5.70;99.90
10278;DHT22;5184;51.376;7.148;2024-03-06T08:55:46;5.80;99.90
10278;DHT22;5184;51.376;7.148;2024-03-06T08:58:13;6.00;99.90
10278;DHT22;5184;51.376;7.148;2024-03-06T09:00:40;6.00;99.90
10278;DHT22;5184;51.376;7.148;2024-03-06T09:03:06;6.00;99.90
10278;DHT22;5184;51.376;7.148;2024-03-06T09:05:33;5.90;99.90
10278;DHT22;5184;51.376;7.148;2024-03-06T09:07:59;5.90;99.90
10278;DHT22;5184;51.376;7.148;2024-03-06T09:10:26;5.90;99.90
10278;DHT22;5184;51.376;7.148;2024-03-06T09:12:53;5.90;99.90
10278;DHT22;5184;51.376;7.148;2024-03-06T09:15:19;5.80;99.90
10278;DHT22;5184;51.376;7.148;2024-03-06T09:17:46;5.90;99.90
10278;DHT22;5184;51.376;7.148;2024-03-06T09:20:13;6.00;99.90
10278;DHT22;5184;51.376;7.148;2024-03-06T09:22:40;6.20;99.90
10278;DHT22;5184;51.376;7.148;2024-03-06T09:25:07;6.20;99.90
10278;DHT22;5184;51.376;7.148;2024-03-06T09:27:34;6.30;99.90
10278;DHT22;5184;51.376;7.148;2024-03-06T09:30:01;6.30;99.90
10278;DHT22;5184;51.376;7.148;2024-03-06T09:32:30;6.40;99.90
10278;DHT22;5184;51.376;7.148;2024-03-06T09:34:58;6.60;99.90
10278;DHT22;5184;51.376;7.148;2024-03-06T09:37:24;6.70;99.90
10278;DHT22;5184;51.376;7.148;2024-03-06T09:39:51;6.60;99.90
10278;DHT22;5184;51.376;7.148;2024-03-06T09:42:18;6.80;99.90
10278;DHT22;5184;51.376;7.148;2024-03-06T09:44:44;6.80;99.90
10278;DHT22;5184;51.376;7.148;2024-03-06T09:47:12;7.10;99.90
10278;DHT22;5184;51.376;7.148;2024-03-06T09:49:40;7.20;99.90
10278;DHT22;5184;51.376;7.148;2024-03-06T09:52:07;7.30;99.90
10278;DHT22;5184;51.376;7.148;2024-03-06T09:54:34;7.30;99.90
10278;DHT22;5184;51.376;7.148;2024-03-06T09:57:00;7.40;99.90
10278;DHT22;5184;51.376;7.148;2024-03-06T09:59:28;7.60;99.90
10278;DHT22;5184;51.376;7.148;2024-03-06T10:01:56;7.80;99.90
10278;DHT22;5184;51.376;7.148;2024-03-06T10:04:23;7.70;99.90
10278;DHT22;5184;51.376;7.148;2024-03-06T10:06:49;7.90;99.90
10278;DHT22;5184;51.376;7.148;2024-03-06T10:09:17;8.00;99.90
10278;DHT22;5184;51.376;7.148;2024-03-06T10:11:43;8.20;99.90
10278;DHT22;5184;51.376;7.148;2024-03-06T10:14:10;8.30;99.90
10278;DHT22;5184;51.376;7.148;2024-03-06T10:16:37;9.10;99.90
10278;DHT22;5184;51.376;7.148;2024-03-06T10:19:15;8.60;99.90
10278;DHT22;5184;51.376;7.148;2024-03-06T10:21:41;8.70;99.90
10278;DHT22;5184;51.376;7.148;2024-03-06T10:24:08;8.90;99.90
10278;DHT22;5184;51.376;7.148;2024-03-06T10:26:34;9.10;99.90
10278;DHT22;5184;51.376;7.148;2024-03-06T10:29:01;9.30;99.90
10278;DHT22;5184;51.376;7.148;2024-03-06T10:31:28;9.70;99.90
10278;DHT22;5184;51.376;7.148;2024-03-06T10:33:56;9.80;99.90
10278;DHT22;5184;51.376;7.148;2024-03-06T10:36:26;9.90;99.90
10278;DHT22;5184;51.376;7.148;2024-03-06T10:38:50;9.90;99.90
10278;DHT22;5184;51.376;7.148;2024-03-06T10:41:18;9.90;99.90
10278;DHT22;5184;51.376;7.148;2024-03-06T10:43:45;9.80;99.90
10278;DHT22;5184;51.376;7.148;2024-03-06T10:46:12;9.80;99.90
10278;DHT22;5184;51.376;7.148;2024-03-06T10:48:38;9.60;99.90
10278;DHT22;5184;51.376;7.148;2024-03-06T10:51:05;9.40;99.90
10278;DHT22;5184;51.376;7.148;2024-03-06T10:53:32;9.20;99.90
10278;DHT22;5184;51.376;7.148;2024-03-06T10:55:58;9.20;99.90
10278;DHT22;5184;51.376;7.148;2024-03-06T10:58:26;9.20;99.90
10278;DHT22;5184;51.376;7.148;2024-03-06T11:00:53;9.20;99.90
10278;DHT22;5184;51.376;7.148;2024-03-06T11:03:20;9.10;99.90
10278;DHT22;5184;51.376;7.148;2024-03-06T11:05:47;9.10;99.90
10278;DHT22;5184;51.376;7.148;2024-03-06T11:08:15;9.10;99.90
10278;DHT22;5184;51.376;7.148;2024-03-06T11:10:42;9.10;99.90
10278;DHT22;5184;51.376;7.148;2024-03-06T11:13:24;9.20;99.90
10278;DHT22;5184;51.376;7.148;2024-03-06T11:15:51;9.30;99.90
10278;DHT22;5184;51.376;7.148;2024-03-06T11:18:43;9.50;99.90
10278;DHT22;5184;51.376;7.148;2024-03-06T11:24:19;9.80;99.90
10278;DHT22;5184;51.376;7.148;2024-03-06T11:26:50;10.00;99.90
10278;DHT22;5184;51.376;7.148;2024-03-06T11:29:17;10.10;99.90
10278;DHT22;5184;51.376;7.148;2024-03-06T11:34:22;10.30;99.90
10278;DHT22;5184;51.376;7.148;2024-03-06T11:36:48;10.40;99.90
10278;DHT22;5184;51.376;7.148;2024-03-06T11:39:16;10.50;99.90
10278;DHT22;5184;51.376;7.148;2024-03-06T11:41:47;10.60;99.90
10278;DHT22;5184;51.376;7.148;2024-03-06T11:44:14;10.60;99.90
10278;DHT22;5184;51.376;7.148;2024-03-06T11:46:45;10.50;99.90
10278;DHT22;5184;51.376;7.148;2024-03-06T11:49:16;10.50;99.90
10278;DHT22;5184;51.376;7.148;2024-03-06T11:51:44;10.70;99.90
10278;DHT22;5184;51.376;7.148;2024-03-06T11:54:10;10.60;99.90
10278;DHT22;5184;51.376;7.148;2024-03-06T11:56:38;10.70;99.90
10278;DHT22;5184;51.376;7.148;2024-03-06T11:59:03;10.90;99.90
10278;DHT22;5184;51.376;7.148;2024-03-06T12:01:31;11.20;99.90
10278;DHT22;5184;51.376;7.148;2024-03-06T12:03:58;11.20;99.90
10278;DHT22;5184;51.376;7.148;2024-03-06T12:06:26;11.30;99.90
10278;DHT22;5184;51.376;7.148;2024-03-06T12:08:53;11.70;99.90
10278;DHT22;5184;51.376;7.148;2024-03-06T12:11:20;11.80;99.90
10278;DHT22;5184;51.376;7.148;2024-03-06T12:13:48;11.80;99.90
10278;DHT22;5184;51.376;7.148;2024-03-06T12:16:15;11.70;99.90
10278;DHT22;5184;51.376;7.148;2024-03-06T12:18:42;11.70;99.90
10278;DHT22;5184;51.376;7.148;2024-03-06T12:21:11;11.80;99.90
10278;DHT22;5184;51.376;7.148;2024-03-06T12:23:38;11.70;99.90
10278;DHT22;5184;51.376;7.148;2024-03-06T12:26:07;11.70;99.90
10278;DHT22;5184;51.376;7.148;2024-03-06T12:28:36;11.60;99.90
10278;DHT22;5184;51.376;7.148;2024-03-06T12:31:03;11.90;99.90
10278;DHT22;5184;51.376;7.148;2024-03-06T12:33:30;11.70;99.90
10278;DHT22;5184;51.376;7.148;2024-03-06T12:36:05;11.70;99.90
10278;DHT22;5184;51.376;7.148;2024-03-06T12:38:32;11.70;99.90
10278;DHT22;5184;51.376;7.148;2024-03-06T12:40:59;11.70;99.90
10278;DHT22;5184;51.376;7.148;2024-03-06T12:43:26;11.70;99.90
10278;DHT22;5184;51.376;7.148;2024-03-06T12:45:53;11.80;99.90
10278;DHT22;5184;51.376;7.148;2024-03-06T12:48:21;11.80;99.90
10278;DHT22;5184;51.376;7.148;2024-03-06T12:50:47;11.90;99.90
10278;DHT22;5184;51.376;7.148;2024-03-06T12:53:14;12.00;99.90
10278;DHT22;5184;51.376;7.148;2024-03-06T12:55:41;12.00;98.40
10278;DHT22;5184;51.376;7.148;2024-03-06T12:58:08;12.00;97.90
10278;DHT22;5184;51.376;7.148;2024-03-06T13:00:35;12.00;92.80
10278;DHT22;5184;51.376;7.148;2024-03-06T13:03:06;12.00;97.00
10278;DHT22;5184;51.376;7.148;2024-03-06T13:05:33;11.80;85.70
10278;DHT22;5184;51.376;7.148;2024-03-06T13:08:00;11.60;99.40
10278;DHT22;5184;51.376;7.148;2024-03-06T13:10:27;11.50;99.90
10278;DHT22;5184;51.376;7.148;2024-03-06T13:12:53;11.50;99.90
10278;DHT22;5184;51.376;7.148;2024-03-06T13:15:20;11.30;99.90
10278;DHT22;5184;51.376;7.148;2024-03-06T13:17:46;11.20;99.90
10278;DHT22;5184;51.376;7.148;2024-03-06T13:20:14;11.20;99.90
10278;DHT22;5184;51.376;7.148;2024-03-06T13:22:41;11.10;99.90
10278;DHT22;5184;51.376;7.148;2024-03-06T13:25:08;11.20;99.90
10278;DHT22;5184;51.376;7.148;2024-03-06T13:27:35;11.10;99.90
10278;DHT22;5184;51.376;7.148;2024-03-06T13:30:01;11.10;99.90
10278;DHT22;5184;51.376;7.148;2024-03-06T13:32:28;11.40;99.90
10278;DHT22;5184;51.376;7.148;2024-03-06T13:34:56;11.40;95.20
10278;DHT22;5184;51.376;7.148;2024-03-06T13:37:23;12.00;98.50
10278;DHT22;5184;51.376;7.148;2024-03-06T13:39:50;11.50;98.30
10278;DHT22;5184;51.376;7.148;2024-03-06T13:42:16;11.70;99.90
10278;DHT22;5184;51.376;7.148;2024-03-06T13:44:43;11.90;77.40
10278;DHT22;5184;51.376;7.148;2024-03-06T13:47:14;11.80;88.70
10278;DHT22;5184;51.376;7.148;2024-03-06T13:49:39;11.70;85.90
10278;DHT22;5184;51.376;7.148;2024-03-06T13:52:06;11.70;79.90
10278;DHT22;5184;51.376;7.148;2024-03-06T13:54:33;11.60;49.50
10278;DHT22;5184;51.376;7.148;2024-03-06T13:56:59;11.60;38.50
10278;DHT22;5184;51.376;7.148;2024-03-06T13:59:30;11.50;44.80
10278;DHT22;5184;51.376;7.148;2024-03-06T14:01:56;11.40;43.40
10278;DHT22;5184;51.376;7.148;2024-03-06T14:04:22;11.40;59.10
10278;DHT22;5184;51.376;7.148;2024-03-06T14:06:49;11.40;60.10
10278;DHT22;5184;51.376;7.148;2024-03-06T14:09:15;11.50;73.00
10278;DHT22;5184;51.376;7.148;2024-03-06T14:11:42;11.50;44.40
10278;DHT22;5184;51.376;7.148;2024-03-06T14:14:08;11.60;90.70
10278;DHT22;5184;51.376;7.148;2024-03-06T14:16:35;11.80;55.10
10278;DHT22;5184;51.376;7.148;2024-03-06T14:19:02;12.00;1.00
10278;DHT22;5184;51.376;7.148;2024-03-06T14:21:30;11.90;1.00
10278;DHT22;5184;51.376;7.148;2024-03-06T14:23:59;11.90;1.00
10278;DHT22;5184;51.376;7.148;2024-03-06T14:26:25;11.80;1.00
10278;DHT22;5184;51.376;7.148;2024-03-06T14:28:52;11.80;1.00
10278;DHT22;5184;51.376;7.148;2024-03-06T14:31:19;11.70;31.30
10278;DHT22;5184;51.376;7.148;2024-03-06T14:33:47;11.60;50.60
10278;DHT22;5184;51.376;7.148;2024-03-06T14:36:14;11.50;72.80
10278;DHT22;5184;51.376;7.148;2024-03-06T14:38:41;11.50;61.00
10278;DHT22;5184;51.376;7.148;2024-03-06T14:41:07;11.50;91.20
10278;DHT22;5184;51.376;7.148;2024-03-06T14:43:34;11.50;99.90
10278;DHT22;5184;51.376;7.148;2024-03-06T14:46:01;11.40;99.90
10278;DHT22;5184;51.376;7.148;2024-03-06T14:48:28;11.40;99.90
10278;DHT22;5184;51.376;7.148;2024-03-06T14:50:55;11.40;99.90
10278;DHT22;5184;51.376;7.148;2024-03-06T14:53:21;11.40;99.90
10278;DHT22;5184;51.376;7.148;2024-03-06T14:55:48;11.50;99.90
10278;DHT22;5184;51.376;7.148;2024-03-06T14:58:15;11.40;99.90
10278;DHT22;5184;51.376;7.148;2024-03-06T15:00:42;11.40;89.40
10278;DHT22;5184;51.376;7.148;2024-03-06T15:03:08;11.50;99.90
10278;DHT22;5184;51.376;7.148;2024-03-06T15:05:35;11.60;99.90
10278;DHT22;5184;51.376;7.148;2024-03-06T15:08:03;11.80;69.60
10278;DHT22;5184;51.376;7.148;2024-03-06T15:10:30;11.80;58.20
10278;DHT22;5184;51.376;7.148;2024-03-06T15:12:58;11.90;69.00
10278;DHT22;5184;51.376;7.148;2024-03-06T15:15:24;11.90;91.00
10278;DHT22;5184;51.376;7.148;2024-03-06T15:17:52;12.20;99.90
10278;DHT22;5184;51.376;7.148;2024-03-06T15:20:18;12.20;99.90
10278;DHT22;5184;51.376;7.148;2024-03-06T15:22:45;12.70;96.00
10278;DHT22;5184;51.376;7.148;2024-03-06T15:25:12;12.60;17.60
10278;DHT22;5184;51.376;7.148;2024-03-06T15:27:38;12.40;1.00
10278;DHT22;5184;51.376;7.148;2024-03-06T15:30:06;12.00;19.90
10278;DHT22;5184;51.376;7.148;2024-03-06T15:32:34;12.00;23.50
10278;DHT22;5184;51.376;7.148;2024-03-06T15:35:01;11.90;48.20
10278;DHT22;5184;51.376;7.148;2024-03-06T15:37:28;11.80;40.70
10278;DHT22;5184;51.376;7.148;2024-03-06T15:39:54;11.60;26.30
10278;DHT22;5184;51.376;7.148;2024-03-06T15:42:21;11.50;43.20
10278;DHT22;5184;51.376;7.148;2024-03-06T15:44:49;11.40;50.00
10278;DHT22;5184;51.376;7.148;2024-03-06T15:47:17;11.30;39.40
10278;DHT22;5184;51.376;7.148;2024-03-06T15:49:43;11.30;37.40
10278;DHT22;5184;51.376;7.148;2024-03-06T15:52:11;11.20;50.10
10278;DHT22;5184;51.376;7.148;2024-03-06T15:57:07;11.10;55.40
10278;DHT22;5184;51.376;7.148;2024-03-06T15:59:34;11.30;39.00
10278;DHT22;5184;51.376;7.148;2024-03-06T16:02:01;11.00;85.10
10278;DHT22;5184;51.376;7.148;2024-03-06T16:04:27;11.00;53.20
10278;DHT22;5184;51.376;7.148;2024-03-06T16:06:56;11.00;68.20